createdAt,value
2018-02-27T00:02:22.497Z,102713.16
2018-02-27T00:04:50.072Z,102707.84
2018-02-27T00:07:17.779Z,102707.54
2018-02-27T00:09:45.602Z,102707.78
2018-02-27T00:12:13.162Z,102701.17
2018-02-27T00:14:41.085Z,102695.77
2018-02-27T00:17:08.665Z,102701.59
2018-02-27T00:19:36.223Z,102697.83
2018-02-27T00:22:03.884Z,102696.67
2018-02-27T00:24:31.482Z,102690.13
2018-02-27T00:26:59.062Z,102691.13
2018-02-27T00:29:26.683Z,102694.87
2018-02-27T00:31:54.618Z,102689.89
2018-02-27T00:34:22.177Z,102688.75
2018-02-27T00:36:49.786Z,102688.53
2018-02-27T00:39:17.449Z,102690.94
2018-02-27T00:41:45.020Z,102688.98
2018-02-27T00:44:12.819Z,102687.16
2018-02-27T00:46:40.459Z,102684.95
2018-02-27T00:49:08.052Z,102686.94
2018-02-27T00:51:35.654Z,102685.44
2018-02-27T00:54:03.334Z,102685.95
2018-02-27T00:56:30.884Z,102678.23
2018-02-27T00:58:58.812Z,102679.96
2018-02-27T01:01:26.413Z,102684.84
2018-02-27T01:03:54.212Z,102680.56
2018-02-27T01:06:21.798Z,102683.64
2018-02-27T01:08:49.412Z,102675.94
2018-02-27T01:11:16.980Z,102670.55
2018-02-27T01:13:44.543Z,102671.89
2018-02-27T01:16:12.169Z,102660.77
2018-02-27T01:18:39.746Z,102660.31
2018-02-27T01:21:07.589Z,102661.48
2018-02-27T01:23:35.213Z,102655.77
2018-02-27T01:26:02.781Z,102656.93
2018-02-27T01:28:30.368Z,102650.75
2018-02-27T01:30:58.216Z,102651.98
2018-02-27T01:33:26.191Z,102649.75
2018-02-27T01:35:53.848Z,102641.79
2018-02-27T01:38:21.551Z,102643.11
2018-02-27T01:40:49.157Z,102637.81
2018-02-27T01:43:16.755Z,102635.23
2018-02-27T01:45:44.367Z,102629.73
2018-02-27T01:48:11.932Z,102622.62
2018-02-27T01:50:39.509Z,102621.30
2018-02-27T01:53:07.117Z,102618.91
2018-02-27T01:55:34.708Z,102620.45
2018-02-27T01:58:02.295Z,102618.82
2018-02-27T02:00:29.930Z,102623.34
2018-02-27T02:02:57.570Z,102618.13
2018-02-27T02:05:25.172Z,102620.54
2018-02-27T02:07:53.155Z,102623.68
2018-02-27T02:10:20.767Z,102610.78
2018-02-27T02:12:48.347Z,102619.81
2018-02-27T02:15:16.236Z,102609.63
2018-02-27T02:17:43.968Z,102609.14
2018-02-27T02:20:11.607Z,102603.25
2018-02-27T02:22:39.178Z,102608.55
2018-02-27T02:25:07.042Z,102610.20
2018-02-27T02:27:34.694Z,102606.38
2018-02-27T02:30:02.282Z,102604.16
2018-02-27T02:32:30.178Z,102601.41
2018-02-27T02:34:57.824Z,102599.94
2018-02-27T02:37:25.474Z,102597.86
2018-02-27T02:39:53.092Z,102594.55
2018-02-27T02:42:23.418Z,102592.16
2018-02-27T02:44:52.778Z,102591.34
2018-02-27T02:47:20.333Z,102588.53
2018-02-27T02:49:47.920Z,102597.72
2018-02-27T02:52:15.560Z,102592.42
2018-02-27T02:54:43.220Z,102590.37
2018-02-27T02:57:10.794Z,102581.66
2018-02-27T02:59:38.675Z,102584.25
2018-02-27T03:02:06.270Z,102585.18
2018-02-27T03:04:34.242Z,102576.91
2018-02-27T03:07:01.903Z,102577.58
2018-02-27T03:09:29.465Z,102577.33
2018-02-27T03:11:57.058Z,102570.47
2018-02-27T03:14:24.803Z,102570.14
2018-02-27T03:16:52.419Z,102568.92
2018-02-27T03:19:20.089Z,102562.21
2018-02-27T03:21:48.046Z,102567.09
2018-02-27T03:24:15.703Z,102566.84
2018-02-27T03:26:43.270Z,102559.16
2018-02-27T03:29:10.916Z,102560.33
2018-02-27T03:31:38.559Z,102560.68
2018-02-27T03:34:06.139Z,102559.78
2018-02-27T03:36:33.721Z,102551.81
2018-02-27T03:39:01.334Z,102554.08
2018-02-27T03:41:29.236Z,102549.02
2018-02-27T03:43:56.830Z,102547.47
2018-02-27T03:46:24.509Z,102541.66
2018-02-27T03:48:52.074Z,102537.78
2018-02-27T03:51:19.992Z,102529.08
2018-02-27T03:53:47.561Z,102522.98
2018-02-27T03:56:15.204Z,102515.64
2018-02-27T03:58:42.769Z,102517.36
2018-02-27T04:01:10.385Z,102519.38
2018-02-27T04:03:38.037Z,102519.76
2018-02-27T04:06:05.621Z,102523.09
2018-02-27T04:08:33.183Z,102517.05
2018-02-27T04:11:00.764Z,102516.66
2018-02-27T04:13:28.362Z,102518.37
2018-02-27T04:15:55.992Z,102521.61
2018-02-27T04:18:23.602Z,102522.19
2018-02-27T04:20:51.231Z,102518.89
2018-02-27T04:23:19.287Z,102523.44
2018-02-27T04:25:47.155Z,102524.21
2018-02-27T04:28:14.742Z,102516.60
2018-02-27T04:30:42.415Z,102514.17
2018-02-27T04:33:10.008Z,102520.95
2018-02-27T04:35:37.617Z,102523.84
2018-02-27T04:38:05.221Z,102513.58
2018-02-27T04:40:32.809Z,102513.66
2018-02-27T04:43:00.663Z,102510.34
2018-02-27T04:45:28.262Z,102505.17
2018-02-27T04:47:55.941Z,102506.44
2018-02-27T04:50:23.562Z,102508.41
2018-02-27T04:52:51.445Z,102504.16
2018-02-27T04:55:19.010Z,102510.46
2018-02-27T04:57:46.973Z,102501.91
2018-02-27T05:00:14.603Z,102508.78
2018-02-27T05:02:42.209Z,102508.13
2018-02-27T05:05:10.084Z,102503.12
2018-02-27T05:07:37.655Z,102503.12
2018-02-27T05:10:05.248Z,102504.06
2018-02-27T05:12:33.151Z,102506.71
2018-02-27T05:15:00.782Z,102504.36
2018-02-27T05:17:28.388Z,102498.08
2018-02-27T05:19:56.040Z,102503.95
2018-02-27T05:22:23.695Z,102505.19
2018-02-27T05:24:51.285Z,102493.42
2018-02-27T05:27:18.846Z,102493.81
2018-02-27T05:29:46.452Z,102499.26
2018-02-27T05:32:14.143Z,102497.36
2018-02-27T05:34:41.781Z,102501.00
2018-02-27T05:37:09.679Z,102498.66
2018-02-27T05:39:37.339Z,102502.33
2018-02-27T05:42:05.163Z,102500.65
2018-02-27T05:44:32.787Z,102503.54
2018-02-27T05:47:00.511Z,102512.16
2018-02-27T05:49:28.105Z,102510.47
2018-02-27T05:51:55.729Z,102512.38
2018-02-27T05:54:23.381Z,102516.68
2018-02-27T05:56:50.978Z,102516.50
2018-02-27T05:59:18.574Z,102518.13
2018-02-27T06:01:46.507Z,102516.74
2018-02-27T06:04:14.125Z,102515.19
2018-02-27T06:06:41.684Z,102515.21
2018-02-27T06:09:09.703Z,102518.20
2018-02-27T06:11:37.304Z,102513.28
2018-02-27T06:14:05.222Z,102518.17
2018-02-27T06:16:32.854Z,102522.33
2018-02-27T06:19:00.460Z,102520.88
2018-02-27T06:21:28.088Z,102527.39
2018-02-27T06:23:55.694Z,102512.95
2018-02-27T06:26:23.353Z,102511.91
2018-02-27T06:28:50.981Z,102517.95
2018-02-27T06:31:18.549Z,102513.73
2018-02-27T06:33:46.186Z,102511.99
2018-02-27T06:36:13.797Z,102509.61
2018-02-27T06:38:41.642Z,102506.42
2018-02-27T06:41:09.511Z,102501.81
2018-02-27T06:43:37.114Z,102505.21
2018-02-27T06:46:04.708Z,102508.70
2018-02-27T06:48:32.531Z,102503.95
2018-02-27T06:51:00.191Z,102511.98
2018-02-27T06:53:27.746Z,102509.88
2018-02-27T06:55:55.371Z,102508.73
2018-02-27T06:58:23.357Z,102504.42
2018-02-27T07:00:51.215Z,102514.78
2018-02-27T07:03:18.779Z,102522.16
2018-02-27T07:05:46.432Z,102520.08
2018-02-27T07:08:14.098Z,102513.03
2018-02-27T07:10:41.656Z,102515.11
2018-02-27T07:13:09.289Z,102506.80
2018-02-27T07:15:36.892Z,102502.98
2018-02-27T07:18:04.533Z,102501.48
2018-02-27T07:20:32.121Z,102501.05
2018-02-27T07:22:59.741Z,102505.63
2018-02-27T07:25:27.439Z,102504.13
2018-02-27T07:27:55.408Z,102505.42
2018-02-27T07:30:22.991Z,102502.11
2018-02-27T07:32:50.848Z,102500.84
2018-02-27T07:35:18.420Z,102501.23
2018-02-27T07:37:46.048Z,102504.37
2018-02-27T07:40:13.713Z,102504.70
2018-02-27T07:42:41.335Z,102506.45
2018-02-27T07:45:22.907Z,102516.45
2018-02-27T07:47:50.502Z,102506.72
2018-02-27T07:50:18.124Z,102503.98
2018-02-27T07:52:45.813Z,102508.25
2018-02-27T07:55:13.401Z,102509.06
2018-02-27T07:57:40.988Z,102505.66
2018-02-27T08:00:08.621Z,102501.41
2018-02-27T08:02:36.232Z,102506.44
2018-02-27T08:05:03.916Z,102510.48
2018-02-27T08:07:31.497Z,102506.50
2018-02-27T08:09:59.082Z,102498.84
2018-02-27T08:12:26.706Z,102506.09
2018-02-27T08:14:54.337Z,102504.09
2018-02-27T08:17:21.970Z,102503.87
2018-02-27T08:19:49.541Z,102495.78
2018-02-27T08:22:17.149Z,102492.19
2018-02-27T08:24:44.796Z,102495.95
2018-02-27T08:27:12.379Z,102497.17
2018-02-27T08:29:40.035Z,102496.86
2018-02-27T08:32:07.874Z,102490.47
2018-02-27T08:34:35.671Z,102487.08
2018-02-27T08:37:03.302Z,102487.41
2018-02-27T08:39:30.895Z,102483.61
2018-02-27T08:41:58.461Z,102482.99
2018-02-27T08:44:26.134Z,102481.67
2018-02-27T08:46:53.750Z,102479.73
2018-02-27T08:49:21.341Z,102476.68
2018-02-27T08:51:48.959Z,102470.61
2018-02-27T08:54:16.551Z,102474.48
2018-02-27T08:56:44.194Z,102474.24
2018-02-27T08:59:12.010Z,102479.70
2018-02-27T09:01:39.578Z,102472.11
2018-02-27T09:04:07.554Z,102473.28
2018-02-27T09:06:35.147Z,102465.36
2018-02-27T09:09:02.739Z,102472.41
2018-02-27T09:11:30.736Z,102467.66
2018-02-27T09:13:58.546Z,102470.53
2018-02-27T09:16:26.107Z,102457.31
2018-02-27T09:18:53.759Z,102455.02
2018-02-27T09:21:21.428Z,102457.06
2018-02-27T09:23:49.019Z,102460.89
2018-02-27T09:26:16.648Z,102449.28
2018-02-27T09:28:44.231Z,102452.94
2018-02-27T09:31:12.137Z,102439.23
2018-02-27T09:33:40.096Z,102439.66
2018-02-27T09:36:07.996Z,102441.48
2018-02-27T09:38:35.611Z,102440.96
2018-02-27T09:41:03.197Z,102437.04
2018-02-27T09:43:30.806Z,102434.09
2018-02-27T09:45:58.423Z,102439.18
2018-02-27T09:48:26.079Z,102437.69
2018-02-27T09:50:53.664Z,102435.77
2018-02-27T09:53:21.255Z,102427.45
2018-02-27T09:55:48.846Z,102428.17
2018-02-27T09:58:16.451Z,102422.84
2018-02-27T10:00:44.398Z,102427.21
2018-02-27T10:03:12.057Z,102423.88
2018-02-27T10:05:39.674Z,102417.78
2018-02-27T10:08:07.272Z,102423.39
2018-02-27T10:10:34.885Z,102412.67
2018-02-27T10:13:02.612Z,102411.70
2018-02-27T10:15:30.210Z,102412.98
2018-02-27T10:17:57.798Z,102406.88
2018-02-27T10:20:25.447Z,102407.86
2018-02-27T10:22:53.069Z,102408.31
2018-02-27T10:25:20.700Z,102402.59
2018-02-27T10:27:48.325Z,102394.96
2018-02-27T10:30:16.349Z,102391.75
2018-02-27T10:32:44.026Z,102389.47
2018-02-27T10:35:11.593Z,102386.84
2018-02-27T10:37:39.318Z,102383.72
2018-02-27T10:40:06.954Z,102381.69
2018-02-27T10:42:34.773Z,102374.12
2018-02-27T10:45:02.428Z,102384.84
2018-02-27T10:47:30.049Z,102379.11
2018-02-27T10:49:57.608Z,102387.08
2018-02-27T10:52:25.203Z,102385.08
2018-02-27T10:54:52.897Z,102375.03
2018-02-27T10:57:20.550Z,102383.05
2018-02-27T10:59:48.140Z,102374.09
2018-02-27T11:02:15.972Z,102378.02
2018-02-27T11:04:43.603Z,102374.02
2018-02-27T11:07:11.483Z,102370.62
2018-02-27T11:09:39.129Z,102371.95
2018-02-27T11:12:06.825Z,102373.05
2018-02-27T11:14:34.459Z,102370.59
2018-02-27T11:17:02.092Z,102366.42
2018-02-27T11:19:29.662Z,102360.42
2018-02-27T11:21:57.317Z,102359.73
2018-02-27T11:24:24.889Z,102355.52
2018-02-27T11:26:52.529Z,102348.83
2018-02-27T11:29:20.143Z,102345.62
2018-02-27T11:31:47.728Z,102335.28
2018-02-27T11:34:15.355Z,102333.04
2018-02-27T11:36:42.980Z,102330.38
2018-02-27T11:39:10.622Z,102327.88
2018-02-27T11:41:38.213Z,102323.70
2018-02-27T11:44:05.790Z,102325.84
2018-02-27T11:46:33.420Z,102323.98
2018-02-27T11:49:01.015Z,102320.20
2018-02-27T11:51:28.672Z,102316.83
2018-02-27T11:53:56.321Z,102315.48
2018-02-27T11:56:24.220Z,102316.72
2018-02-27T11:58:51.847Z,102316.41
2018-02-27T12:01:19.508Z,102314.33
2018-02-27T12:03:47.092Z,102312.92
2018-02-27T12:06:14.963Z,102307.96
2018-02-27T12:08:42.572Z,102298.20
2018-02-27T12:11:10.167Z,102303.40
2018-02-27T12:13:37.762Z,102296.45
2018-02-27T12:16:05.400Z,102299.92
2018-02-27T12:18:33.083Z,102293.63
2018-02-27T12:21:00.688Z,102291.52
2018-02-27T12:23:28.252Z,102299.16
2018-02-27T12:25:55.892Z,102300.48
2018-02-27T12:28:23.470Z,102295.36
2018-02-27T12:30:51.039Z,102298.42
2018-02-27T12:33:18.689Z,102293.72
2018-02-27T12:35:46.294Z,102288.70
2018-02-27T12:38:13.876Z,102287.86
2018-02-27T12:40:41.478Z,102284.91
2018-02-27T12:43:09.326Z,102277.02
2018-02-27T12:45:37.206Z,102276.69
2018-02-27T12:48:04.838Z,102275.02
2018-02-27T12:50:32.423Z,102279.15
2018-02-27T12:53:01.251Z,102285.50
2018-02-27T12:55:29.133Z,102289.02
2018-02-27T12:57:57.100Z,102281.20
2018-02-27T13:00:24.733Z,102282.05
2018-02-27T13:02:52.368Z,102276.81
2018-02-27T13:05:20.028Z,102269.30
2018-02-27T13:07:47.651Z,102263.77
2018-02-27T13:10:15.304Z,102268.61
2018-02-27T13:12:42.902Z,102253.63
2018-02-27T13:15:10.529Z,102248.60
2018-02-27T13:17:38.201Z,102242.31
2018-02-27T13:20:05.863Z,102250.63
2018-02-27T13:22:33.734Z,102236.70
2018-02-27T13:25:01.337Z,102237.61
2018-02-27T13:27:28.998Z,102242.05
2018-02-27T13:29:56.576Z,102243.16
2018-02-27T13:32:24.250Z,102235.44
2018-02-27T13:34:51.893Z,102238.83
2018-02-27T13:37:19.615Z,102240.58
2018-02-27T13:39:47.204Z,102237.17
2018-02-27T13:42:15.064Z,102232.05
2018-02-27T13:44:42.727Z,102231.84
2018-02-27T13:47:10.298Z,102220.75
2018-02-27T13:49:38.114Z,102222.70
2018-02-27T13:52:05.784Z,102219.20
2018-02-27T13:54:33.495Z,102208.98
2018-02-27T13:57:01.097Z,102210.75
2018-02-27T13:59:28.663Z,102199.67
2018-02-27T14:01:56.275Z,102197.95
2018-02-27T14:04:23.838Z,102198.44
2018-02-27T14:06:51.481Z,102192.81
2018-02-27T14:09:19.109Z,102186.02
2018-02-27T14:11:46.709Z,102182.05
2018-02-27T14:14:14.290Z,102178.28
2018-02-27T14:16:41.919Z,102179.30
2018-02-27T14:19:09.483Z,102168.36
2018-02-27T14:21:37.038Z,102164.45
2018-02-27T14:24:05.080Z,102164.27
2018-02-27T14:26:32.939Z,102168.22
2018-02-27T14:29:00.924Z,102150.41
2018-02-27T14:31:28.609Z,102149.66
2018-02-27T14:33:56.208Z,102159.54
2018-02-27T14:36:23.810Z,102148.31
2018-02-27T14:38:51.491Z,102156.66
2018-02-27T14:41:19.450Z,102158.66
2018-02-27T14:43:47.107Z,102153.58
2018-02-27T14:46:14.692Z,102151.94
2018-02-27T14:48:42.257Z,102151.91
2018-02-27T14:51:09.930Z,102156.39
2018-02-27T14:53:37.595Z,102156.62
2018-02-27T14:56:05.175Z,102165.16
2018-02-27T14:58:32.856Z,102160.61
2018-02-27T15:01:00.484Z,102162.29
2018-02-27T15:03:28.203Z,102157.75
2018-02-27T15:05:56.161Z,102158.47
2018-02-27T15:08:23.729Z,102149.08
2018-02-27T15:10:51.324Z,102150.61
2018-02-27T15:13:18.953Z,102145.67
2018-02-27T15:15:46.561Z,102144.39
2018-02-27T15:18:14.195Z,102145.31
2018-02-27T15:20:41.859Z,102136.02
2018-02-27T15:23:09.506Z,102140.95
2018-02-27T15:25:37.101Z,102144.05
2018-02-27T15:28:04.695Z,102140.05
2018-02-27T15:30:32.330Z,102132.06
2018-02-27T15:32:59.946Z,102139.56
2018-02-27T15:35:27.778Z,102141.17
2018-02-27T15:37:55.661Z,102137.34
2018-02-27T15:40:23.312Z,102134.09
2018-02-27T15:42:50.921Z,102129.16
2018-02-27T15:45:18.539Z,102137.36
2018-02-27T15:47:46.128Z,102133.27
2018-02-27T15:50:13.712Z,102134.39
2018-02-27T15:52:41.350Z,102128.05
2018-02-27T15:55:08.950Z,102129.59
2018-02-27T15:57:36.611Z,102134.48
2018-02-27T16:00:04.193Z,102128.95
2018-02-27T16:02:31.861Z,102127.12
2018-02-27T16:04:59.568Z,102126.80
2018-02-27T16:07:27.192Z,102131.48
2018-02-27T16:09:55.014Z,102119.49
2018-02-27T16:12:22.688Z,102122.88
2018-02-27T16:14:50.362Z,102120.72
2018-02-27T16:17:17.952Z,102120.82
2018-02-27T16:19:45.642Z,102124.40
2018-02-27T16:22:13.333Z,102130.56
2018-02-27T16:24:41.019Z,102121.73
2018-02-27T16:27:08.676Z,102124.70
2018-02-27T16:29:36.267Z,102126.93
2018-02-27T16:32:04.566Z,102128.75
2018-02-27T16:34:32.169Z,102127.61
2018-02-27T16:36:59.725Z,102127.36
2018-02-27T16:39:27.384Z,102139.92
2018-02-27T16:41:55.306Z,102132.73
2018-02-27T16:44:22.965Z,102141.80
2018-02-27T16:46:50.563Z,102143.28
2018-02-27T16:49:18.171Z,102149.51
2018-02-27T16:51:45.926Z,102146.11
2018-02-27T16:54:13.821Z,102148.02
2018-02-27T16:56:41.397Z,102144.22
2018-02-27T16:59:09.041Z,102148.50
2018-02-27T17:01:36.715Z,102148.02
2018-02-27T17:04:04.573Z,102151.14
2018-02-27T17:06:32.220Z,102150.28
2018-02-27T17:08:59.786Z,102152.29
2018-02-27T17:11:27.388Z,102153.45
2018-02-27T17:13:55.005Z,102153.69
2018-02-27T17:16:22.660Z,102155.36
2018-02-27T17:18:50.232Z,102162.71
2018-02-27T17:21:18.180Z,102157.56
2018-02-27T17:23:45.789Z,102154.51
2018-02-27T17:26:13.387Z,102160.22
2018-02-27T17:28:41.191Z,102149.98
2018-02-27T17:31:08.793Z,102148.53
2018-02-27T17:33:36.357Z,102149.19
2018-02-27T17:36:03.975Z,102147.79
2018-02-27T17:38:31.945Z,102141.89
2018-02-27T17:40:59.550Z,102149.47
2018-02-27T17:43:27.117Z,102153.35
2018-02-27T17:45:54.871Z,102153.13
2018-02-27T17:48:22.438Z,102150.96
2018-02-27T17:50:49.999Z,102147.34
2018-02-27T17:53:17.654Z,102152.13
2018-02-27T17:55:45.224Z,102147.47
2018-02-27T17:58:12.787Z,102145.75
2018-02-27T18:00:40.448Z,102144.94
2018-02-27T18:03:08.011Z,102144.81
2018-02-27T18:05:35.918Z,102143.52
2018-02-27T18:08:03.604Z,102136.92
2018-02-27T18:10:31.198Z,102133.20
2018-02-27T18:12:58.813Z,102145.70
2018-02-27T18:15:26.425Z,102139.29
2018-02-27T18:17:54.093Z,102134.92
2018-02-27T18:20:22.116Z,102131.62
2018-02-27T18:22:49.691Z,102135.08
2018-02-27T18:25:17.270Z,102128.96
2018-02-27T18:27:44.895Z,102132.36
2018-02-27T18:30:12.487Z,102129.58
2018-02-27T18:32:40.135Z,102137.21
2018-02-27T18:35:08.084Z,102134.87
2018-02-27T18:37:35.857Z,102130.70
2018-02-27T18:40:03.505Z,102132.03
2018-02-27T18:42:31.071Z,102127.73
2018-02-27T18:44:58.664Z,102135.97
2018-02-27T18:47:26.277Z,102132.86
2018-02-27T18:49:53.896Z,102135.89
2018-02-27T18:52:21.815Z,102133.73
2018-02-27T18:54:49.492Z,102135.16
2018-02-27T18:57:17.087Z,102133.92
2018-02-27T18:59:44.647Z,102137.48
2018-02-27T19:02:12.303Z,102137.14
2018-02-27T19:04:39.871Z,102134.75
2018-02-27T19:07:07.479Z,102129.16
2018-02-27T19:09:35.077Z,102134.94
2018-02-27T19:12:02.642Z,102137.98
2018-02-27T19:14:30.288Z,102132.83
2018-02-27T19:16:57.863Z,102138.61
2018-02-27T19:19:25.516Z,102134.27
2018-02-27T19:21:53.151Z,102127.73
2018-02-27T19:24:20.718Z,102130.91
2018-02-27T19:26:48.273Z,102133.33
2018-02-27T19:29:16.012Z,102132.61
2018-02-27T19:31:43.617Z,102136.03
2018-02-27T19:34:11.178Z,102136.41
2018-02-27T19:36:38.786Z,102130.73
2018-02-27T19:39:06.346Z,102135.81
2018-02-27T19:41:33.916Z,102139.07
2018-02-27T19:44:01.559Z,102142.58
2018-02-27T19:46:29.168Z,102143.21
2018-02-27T19:48:56.714Z,102146.66
2018-02-27T19:51:24.381Z,102144.25
2018-02-27T19:53:51.983Z,102146.28
2018-02-27T19:56:19.542Z,102142.59
2018-02-27T19:58:47.160Z,102152.63
2018-02-27T20:01:14.745Z,102154.81
2018-02-27T20:03:42.382Z,102150.74
2018-02-27T20:06:09.981Z,102146.05
2018-02-27T20:08:37.632Z,102153.25
2018-02-27T20:11:05.491Z,102153.62
2018-02-27T20:13:33.053Z,102146.67
2018-02-27T20:16:00.660Z,102145.30
2018-02-27T20:18:28.269Z,102149.00
2018-02-27T20:20:55.868Z,102153.48
2018-02-27T20:23:29.132Z,102155.09
2018-02-27T20:25:56.694Z,102153.57
2018-02-27T20:28:29.905Z,102155.80
2018-02-27T20:30:57.534Z,102160.61
2018-02-27T20:33:25.158Z,102161.79
2018-02-27T20:35:52.789Z,102162.97
2018-02-27T20:38:26.344Z,102164.92
2018-02-27T20:40:53.998Z,102164.20
2018-02-27T20:43:21.598Z,102167.03
2018-02-27T20:45:49.365Z,102171.77
2018-02-27T20:48:17.041Z,102168.45
2018-02-27T20:50:44.607Z,102171.70
2018-02-27T20:53:12.190Z,102173.50
2018-02-27T20:55:39.845Z,102178.73
2018-02-27T20:58:07.461Z,102179.14
2018-02-27T21:00:35.058Z,102176.05
2018-02-27T21:03:02.651Z,102183.97
2018-02-27T21:05:30.257Z,102178.41
2018-02-27T21:07:57.842Z,102182.89
2018-02-27T21:10:25.453Z,102180.00
2018-02-27T21:12:53.050Z,102182.69
2018-02-27T21:15:20.690Z,102184.82
2018-02-27T21:17:48.320Z,102184.64
2018-02-27T21:20:15.909Z,102183.34
2018-02-27T21:22:43.496Z,102182.39
2018-02-27T21:25:11.121Z,102192.85
2018-02-27T21:27:38.709Z,102185.61
2018-02-27T21:30:06.300Z,102179.84
2018-02-27T21:32:33.917Z,102183.42
2018-02-27T21:35:01.566Z,102191.69
2018-02-27T21:37:29.186Z,102187.31
2018-02-27T21:39:57.095Z,102186.56
2018-02-27T21:42:24.659Z,102183.25
2018-02-27T21:44:52.373Z,102181.75
2018-02-27T21:47:19.963Z,102182.92
2018-02-27T21:49:47.527Z,102188.81
2018-02-27T21:52:15.137Z,102186.69
2018-02-27T21:54:42.708Z,102181.45
2018-02-27T21:57:10.304Z,102183.59
2018-02-27T21:59:37.953Z,102190.41
2018-02-27T22:02:05.525Z,102192.36
2018-02-27T22:04:33.982Z,102197.09
2018-02-27T22:07:01.610Z,102204.93
2018-02-27T22:09:29.851Z,102203.45
2018-02-27T22:11:57.719Z,102203.13
2018-02-27T22:14:25.696Z,102205.59
2018-02-27T22:16:53.269Z,102208.50
2018-02-27T22:19:20.889Z,102211.84
2018-02-27T22:21:48.566Z,102212.50
2018-02-27T22:24:16.179Z,102214.09
2018-02-27T22:26:43.800Z,102211.42
2018-02-27T22:29:11.777Z,102221.58
2018-02-27T22:31:39.414Z,102210.73
2018-02-27T22:34:07.078Z,102213.80
2018-02-27T22:36:36.707Z,102210.49
2018-02-27T22:39:04.451Z,102213.62
2018-02-27T22:41:32.088Z,102218.16
2018-02-27T22:43:59.688Z,102216.95
2018-02-27T22:46:27.385Z,102220.63
2018-02-27T22:48:55.008Z,102221.31
2018-02-27T22:51:22.987Z,102223.95
2018-02-27T22:53:50.955Z,102224.48
2018-02-27T22:56:18.590Z,102225.19
2018-02-27T22:58:46.194Z,102227.97
2018-02-27T23:01:13.819Z,102219.47
2018-02-27T23:03:41.468Z,102222.45
2018-02-27T23:06:09.817Z,102228.55
2018-02-27T23:08:37.427Z,102227.16
2018-02-27T23:11:05.020Z,102231.19
2018-02-27T23:13:32.664Z,102235.58
2018-02-27T23:16:00.491Z,102228.22
2018-02-27T23:18:28.073Z,102235.97
2018-02-27T23:20:55.692Z,102230.69
2018-02-27T23:23:23.327Z,102235.61
2018-02-27T23:25:59.151Z,102239.63
2018-02-27T23:28:27.616Z,102244.17
2018-02-27T23:30:55.718Z,102234.41
2018-02-27T23:33:27.078Z,102242.84
2018-02-27T23:35:54.722Z,102245.67
2018-02-27T23:38:22.749Z,102245.25
2018-02-27T23:40:50.720Z,102251.41
2018-02-27T23:43:18.864Z,102254.57
2018-02-27T23:45:46.833Z,102254.16
2018-02-27T23:48:14.910Z,102255.17
2018-02-27T23:50:42.499Z,102253.07
2018-02-27T23:53:10.244Z,102261.07
2018-02-27T23:55:38.134Z,102262.39
2018-02-27T23:58:05.698Z,102265.84
